Terminal Aerodrome Forecast
Issued by NWS Medford, OR

Home | Current Version | Previous Version | Text Only | Print | Product List | Glossary On
Versions: 1 2 3 4 5 6 7 8 9 10 11 12 13 14 15 16 17 18 19 20 21 22 23 24 25 26
000
FTUS46 KMFR 191253 AAB
TAFMFR
TAF AMD
KMFR 191253Z 1913/2012 14007KT P6SM -SHRA SCT025 BKN070 OVC110
      TEMPO 1913/1917 3SM -SHRA BR BKN025
     FM191800 27006KT P6SM -SHRA SCT025 BKN040
     FM192000 25011KT P6SM -SHRA BKN035 BKN050
     FM200700 15012KT P6SM -SHRA BKN050 OVC100
     FM201000 16005KT P6SM -SHRA OVC050
     FM201100 18010KT P6SM -RA OVC050=

USA.gov is the U.S. government's official web portal to all federal, state and local government web resources and services.